sensor_id;sensor_type;location;lat;lon;timestamp;P1;durP1;ratioP1;P2;durP2;ratioP2
33844;SDS011;20145;43.118;25.694;2023-02-28T00:00:28;19.52;;;15.48;;
33844;SDS011;20145;43.118;25.694;2023-02-28T00:02:53;15.70;;;13.95;;
33844;SDS011;20145;43.118;25.694;2023-02-28T00:05:20;15.70;;;14.00;;
33844;SDS011;20145;43.118;25.694;2023-02-28T00:07:48;14.82;;;13.27;;
33844;SDS011;20145;43.118;25.694;2023-02-28T00:10:18;15.18;;;13.43;;
33844;SDS011;20145;43.118;25.694;2023-02-28T00:12:49;16.73;;;14.40;;
33844;SDS011;20145;43.118;25.694;2023-02-28T00:15:16;15.57;;;13.98;;
33844;SDS011;20145;43.118;25.694;2023-02-28T00:17:42;14.88;;;13.07;;
33844;SDS011;20145;43.118;25.694;2023-02-28T00:20:09;16.77;;;13.98;;
33844;SDS011;20145;43.118;25.694;2023-02-28T00:22:44;18.42;;;14.40;;
33844;SDS011;20145;43.118;25.694;2023-02-28T00:25:12;15.32;;;13.70;;
33844;SDS011;20145;43.118;25.694;2023-02-28T00:27:40;15.60;;;13.70;;
33844;SDS011;20145;43.118;25.694;2023-02-28T00:30:07;17.40;;;14.68;;
33844;SDS011;20145;43.118;25.694;2023-02-28T00:32:35;17.98;;;16.08;;
33844;SDS011;20145;43.118;25.694;2023-02-28T00:35:01;20.67;;;17.30;;
33844;SDS011;20145;43.118;25.694;2023-02-28T00:37:27;17.83;;;15.93;;
33844;SDS011;20145;43.118;25.694;2023-02-28T00:39:53;17.25;;;15.43;;
33844;SDS011;20145;43.118;25.694;2023-02-28T00:42:18;16.85;;;15.13;;
33844;SDS011;20145;43.118;25.694;2023-02-28T00:44:44;17.30;;;14.98;;
33844;SDS011;20145;43.118;25.694;2023-02-28T00:47:10;17.38;;;15.57;;
33844;SDS011;20145;43.118;25.694;2023-02-28T00:49:35;17.23;;;15.15;;
33844;SDS011;20145;43.118;25.694;2023-02-28T00:52:01;17.80;;;15.90;;
33844;SDS011;20145;43.118;25.694;2023-02-28T00:54:27;17.58;;;15.60;;
33844;SDS011;20145;43.118;25.694;2023-02-28T00:56:52;17.70;;;15.88;;
33844;SDS011;20145;43.118;25.694;2023-02-28T00:59:18;20.92;;;16.92;;
33844;SDS011;20145;43.118;25.694;2023-02-28T01:01:44;19.58;;;16.35;;
33844;SDS011;20145;43.118;25.694;2023-02-28T01:04:11;19.65;;;16.63;;
33844;SDS011;20145;43.118;25.694;2023-02-28T01:06:37;18.25;;;15.98;;
33844;SDS011;20145;43.118;25.694;2023-02-28T01:09:04;18.70;;;16.33;;
33844;SDS011;20145;43.118;25.694;2023-02-28T01:11:31;22.23;;;17.30;;
33844;SDS011;20145;43.118;25.694;2023-02-28T01:13:57;19.13;;;16.95;;
33844;SDS011;20145;43.118;25.694;2023-02-28T01:16:23;20.50;;;16.55;;
33844;SDS011;20145;43.118;25.694;2023-02-28T01:18:48;21.17;;;15.55;;
33844;SDS011;20145;43.118;25.694;2023-02-28T01:21:16;19.70;;;15.88;;
33844;SDS011;20145;43.118;25.694;2023-02-28T01:23:42;19.42;;;16.38;;
33844;SDS011;20145;43.118;25.694;2023-02-28T01:26:12;20.15;;;15.30;;
33844;SDS011;20145;43.118;25.694;2023-02-28T01:28:40;18.65;;;15.48;;
33844;SDS011;20145;43.118;25.694;2023-02-28T01:31:06;19.02;;;16.77;;
33844;SDS011;20145;43.118;25.694;2023-02-28T01:33:32;19.77;;;15.73;;
33844;SDS011;20145;43.118;25.694;2023-02-28T01:35:59;18.50;;;16.05;;
33844;SDS011;20145;43.118;25.694;2023-02-28T01:38:45;18.50;;;15.43;;
33844;SDS011;20145;43.118;25.694;2023-02-28T01:41:21;18.20;;;15.40;;
33844;SDS011;20145;43.118;25.694;2023-02-28T01:46:14;17.08;;;13.82;;
33844;SDS011;20145;43.118;25.694;2023-02-28T01:49:02;18.13;;;14.80;;
33844;SDS011;20145;43.118;25.694;2023-02-28T01:51:33;18.17;;;14.93;;
33844;SDS011;20145;43.118;25.694;2023-02-28T01:54:06;19.00;;;15.48;;
33844;SDS011;20145;43.118;25.694;2023-02-28T01:56:39;19.83;;;15.95;;
33844;SDS011;20145;43.118;25.694;2023-02-28T01:59:13;17.90;;;14.43;;
33844;SDS011;20145;43.118;25.694;2023-02-28T02:01:54;19.38;;;15.13;;
33844;SDS011;20145;43.118;25.694;2023-02-28T02:04:21;17.55;;;15.15;;
33844;SDS011;20145;43.118;25.694;2023-02-28T02:06:48;20.05;;;14.85;;
33844;SDS011;20145;43.118;25.694;2023-02-28T02:09:14;18.65;;;15.07;;
33844;SDS011;20145;43.118;25.694;2023-02-28T02:11:40;19.90;;;16.42;;
33844;SDS011;20145;43.118;25.694;2023-02-28T02:14:15;20.70;;;15.63;;
33844;SDS011;20145;43.118;25.694;2023-02-28T02:17:05;21.85;;;15.18;;
33844;SDS011;20145;43.118;25.694;2023-02-28T02:35:54;17.65;;;14.07;;
33844;SDS011;20145;43.118;25.694;2023-02-28T02:38:29;18.55;;;14.70;;
33844;SDS011;20145;43.118;25.694;2023-02-28T02:43:49;19.20;;;13.57;;
33844;SDS011;20145;43.118;25.694;2023-02-28T02:46:29;18.35;;;12.88;;
33844;SDS011;20145;43.118;25.694;2023-02-28T02:48:57;19.08;;;13.55;;
33844;SDS011;20145;43.118;25.694;2023-02-28T02:51:29;16.27;;;12.30;;
33844;SDS011;20145;43.118;25.694;2023-02-28T02:54:00;15.50;;;12.48;;
33844;SDS011;20145;43.118;25.694;2023-02-28T02:56:31;19.45;;;14.02;;
33844;SDS011;20145;43.118;25.694;2023-02-28T02:59:06;15.15;;;11.82;;
33844;SDS011;20145;43.118;25.694;2023-02-28T03:01:35;14.15;;;11.80;;
33844;SDS011;20145;43.118;25.694;2023-02-28T03:04:07;14.40;;;11.93;;
33844;SDS011;20145;43.118;25.694;2023-02-28T03:06:35;13.27;;;10.77;;
33844;SDS011;20145;43.118;25.694;2023-02-28T03:09:01;15.18;;;10.85;;
33844;SDS011;20145;43.118;25.694;2023-02-28T03:11:27;16.00;;;11.05;;
33844;SDS011;20145;43.118;25.694;2023-02-28T03:25:00;13.18;;;10.20;;
33844;SDS011;20145;43.118;25.694;2023-02-28T03:30:22;17.38;;;12.43;;
33844;SDS011;20145;43.118;25.694;2023-02-28T03:32:51;14.20;;;11.15;;
33844;SDS011;20145;43.118;25.694;2023-02-28T03:35:39;45.50;;;32.05;;
33844;SDS011;20145;43.118;25.694;2023-02-28T03:38:18;18.52;;;14.18;;
33844;SDS011;20145;43.118;25.694;2023-02-28T03:41:04;16.60;;;12.10;;
33844;SDS011;20145;43.118;25.694;2023-02-28T03:43:55;17.08;;;11.82;;
33844;SDS011;20145;43.118;25.694;2023-02-28T03:46:25;14.85;;;11.38;;
33844;SDS011;20145;43.118;25.694;2023-02-28T03:48:56;68.20;;;45.15;;
33844;SDS011;20145;43.118;25.694;2023-02-28T03:51:40;57.00;;;39.40;;
33844;SDS011;20145;43.118;25.694;2023-02-28T03:54:09;74.40;;;59.17;;
33844;SDS011;20145;43.118;25.694;2023-02-28T03:56:43;56.33;;;46.22;;
33844;SDS011;20145;43.118;25.694;2023-02-28T03:59:13;59.78;;;53.25;;
33844;SDS011;20145;43.118;25.694;2023-02-28T04:01:51;38.80;;;32.88;;
33844;SDS011;20145;43.118;25.694;2023-02-28T04:04:17;22.73;;;19.70;;
33844;SDS011;20145;43.118;25.694;2023-02-28T04:06:43;14.85;;;12.07;;
33844;SDS011;20145;43.118;25.694;2023-02-28T04:09:10;17.70;;;11.88;;
33844;SDS011;20145;43.118;25.694;2023-02-28T04:11:40;16.90;;;11.57;;
33844;SDS011;20145;43.118;25.694;2023-02-28T04:14:08;15.85;;;12.38;;
33844;SDS011;20145;43.118;25.694;2023-02-28T04:16:35;15.27;;;12.85;;
33844;SDS011;20145;43.118;25.694;2023-02-28T04:19:03;93.68;;;82.70;;
33844;SDS011;20145;43.118;25.694;2023-02-28T04:21:31;62.60;;;54.60;;
33844;SDS011;20145;43.118;25.694;2023-02-28T04:23:59;40.60;;;34.47;;
33844;SDS011;20145;43.118;25.694;2023-02-28T04:26:28;24.60;;;19.20;;
33844;SDS011;20145;43.118;25.694;2023-02-28T04:29:00;32.83;;;28.02;;
33844;SDS011;20145;43.118;25.694;2023-02-28T04:31:26;38.78;;;28.65;;
33844;SDS011;20145;43.118;25.694;2023-02-28T04:33:52;24.58;;;20.23;;
33844;SDS011;20145;43.118;25.694;2023-02-28T04:36:18;22.90;;;20.40;;
33844;SDS011;20145;43.118;25.694;2023-02-28T04:38:44;27.77;;;24.05;;
33844;SDS011;20145;43.118;25.694;2023-02-28T04:41:10;18.05;;;15.27;;
33844;SDS011;20145;43.118;25.694;2023-02-28T04:43:36;18.70;;;14.98;;
33844;SDS011;20145;43.118;25.694;2023-02-28T04:46:03;23.75;;;19.02;;
33844;SDS011;20145;43.118;25.694;2023-02-28T04:48:31;15.43;;;12.32;;
33844;SDS011;20145;43.118;25.694;2023-02-28T04:51:01;17.02;;;11.40;;
33844;SDS011;20145;43.118;25.694;2023-02-28T04:53:28;15.63;;;12.65;;
33844;SDS011;20145;43.118;25.694;2023-02-28T04:55:55;12.15;;;10.77;;
33844;SDS011;20145;43.118;25.694;2023-02-28T04:58:21;15.02;;;11.43;;
33844;SDS011;20145;43.118;25.694;2023-02-28T05:00:50;13.38;;;10.00;;
33844;SDS011;20145;43.118;25.694;2023-02-28T05:03:19;12.93;;;10.77;;
33844;SDS011;20145;43.118;25.694;2023-02-28T05:05:47;12.98;;;11.18;;
33844;SDS011;20145;43.118;25.694;2023-02-28T05:08:13;13.77;;;11.30;;
33844;SDS011;20145;43.118;25.694;2023-02-28T05:10:38;14.43;;;10.20;;
33844;SDS011;20145;43.118;25.694;2023-02-28T05:13:04;13.43;;;9.95;;
33844;SDS011;20145;43.118;25.694;2023-02-28T05:15:29;12.90;;;10.27;;
33844;SDS011;20145;43.118;25.694;2023-02-28T05:17:55;15.18;;;10.88;;
33844;SDS011;20145;43.118;25.694;2023-02-28T05:20:21;17.65;;;10.93;;
33844;SDS011;20145;43.118;25.694;2023-02-28T05:22:46;11.93;;;10.35;;
33844;SDS011;20145;43.118;25.694;2023-02-28T05:25:13;13.10;;;9.18;;
33844;SDS011;20145;43.118;25.694;2023-02-28T05:27:43;12.27;;;9.27;;
33844;SDS011;20145;43.118;25.694;2023-02-28T05:30:09;12.80;;;10.20;;
33844;SDS011;20145;43.118;25.694;2023-02-28T05:32:38;14.27;;;12.45;;
33844;SDS011;20145;43.118;25.694;2023-02-28T05:35:09;14.40;;;12.23;;
33844;SDS011;20145;43.118;25.694;2023-02-28T05:37:36;20.05;;;12.02;;
33844;SDS011;20145;43.118;25.694;2023-02-28T05:40:03;12.40;;;9.63;;
33844;SDS011;20145;43.118;25.694;2023-02-28T05:42:32;12.32;;;8.70;;
33844;SDS011;20145;43.118;25.694;2023-02-28T05:44:58;21.52;;;16.92;;
33844;SDS011;20145;43.118;25.694;2023-02-28T05:47:24;16.58;;;14.45;;
33844;SDS011;20145;43.118;25.694;2023-02-28T05:49:49;16.17;;;13.70;;
33844;SDS011;20145;43.118;25.694;2023-02-28T05:52:15;17.67;;;14.18;;
33844;SDS011;20145;43.118;25.694;2023-02-28T05:54:40;18.85;;;12.93;;
33844;SDS011;20145;43.118;25.694;2023-02-28T05:57:06;15.70;;;12.68;;
33844;SDS011;20145;43.118;25.694;2023-02-28T05:59:32;11.68;;;10.45;;
33844;SDS011;20145;43.118;25.694;2023-02-28T06:01:57;29.90;;;26.77;;
33844;SDS011;20145;43.118;25.694;2023-02-28T06:04:23;49.25;;;44.10;;
33844;SDS011;20145;43.118;25.694;2023-02-28T06:06:49;113.28;;;101.72;;
33844;SDS011;20145;43.118;25.694;2023-02-28T06:09:15;30.00;;;23.23;;
33844;SDS011;20145;43.118;25.694;2023-02-28T06:11:41;83.13;;;72.85;;
33844;SDS011;20145;43.118;25.694;2023-02-28T06:14:06;75.68;;;60.28;;
33844;SDS011;20145;43.118;25.694;2023-02-28T06:16:37;15.30;;;11.95;;
33844;SDS011;20145;43.118;25.694;2023-02-28T06:19:03;15.57;;;12.38;;
33844;SDS011;20145;43.118;25.694;2023-02-28T06:21:29;41.13;;;35.08;;
33844;SDS011;20145;43.118;25.694;2023-02-28T06:23:55;27.30;;;21.02;;
33844;SDS011;20145;43.118;25.694;2023-02-28T06:26:21;40.95;;;30.67;;
33844;SDS011;20145;43.118;25.694;2023-02-28T06:28:47;14.25;;;12.50;;
33844;SDS011;20145;43.118;25.694;2023-02-28T06:31:14;30.05;;;22.65;;
33844;SDS011;20145;43.118;25.694;2023-02-28T06:33:41;24.48;;;20.05;;
33844;SDS011;20145;43.118;25.694;2023-02-28T06:36:08;26.25;;;19.67;;
33844;SDS011;20145;43.118;25.694;2023-02-28T06:38:35;35.60;;;24.10;;
33844;SDS011;20145;43.118;25.694;2023-02-28T06:41:02;28.58;;;20.70;;
33844;SDS011;20145;43.118;25.694;2023-02-28T06:43:29;18.85;;;14.75;;
33844;SDS011;20145;43.118;25.694;2023-02-28T06:45:59;15.95;;;12.68;;
33844;SDS011;20145;43.118;25.694;2023-02-28T06:48:27;20.17;;;15.05;;
33844;SDS011;20145;43.118;25.694;2023-02-28T06:51:01;13.90;;;9.60;;
33844;SDS011;20145;43.118;25.694;2023-02-28T06:53:31;20.05;;;14.82;;
33844;SDS011;20145;43.118;25.694;2023-02-28T06:55:58;21.38;;;17.02;;
33844;SDS011;20145;43.118;25.694;2023-02-28T06:58:23;12.57;;;10.30;;
33844;SDS011;20145;43.118;25.694;2023-02-28T07:00:52;11.93;;;9.55;;
33844;SDS011;20145;43.118;25.694;2023-02-28T07:03:18;12.63;;;8.45;;
33844;SDS011;20145;43.118;25.694;2023-02-28T07:05:44;12.55;;;9.30;;
33844;SDS011;20145;43.118;25.694;2023-02-28T07:08:10;10.18;;;9.00;;
33844;SDS011;20145;43.118;25.694;2023-02-28T07:10:39;15.98;;;8.73;;
33844;SDS011;20145;43.118;25.694;2023-02-28T07:13:06;8.18;;;7.22;;
33844;SDS011;20145;43.118;25.694;2023-02-28T07:15:32;19.85;;;9.05;;
33844;SDS011;20145;43.118;25.694;2023-02-28T07:17:58;11.93;;;9.63;;
33844;SDS011;20145;43.118;25.694;2023-02-28T07:20:24;14.48;;;10.57;;
33844;SDS011;20145;43.118;25.694;2023-02-28T07:22:50;11.02;;;9.52;;
33844;SDS011;20145;43.118;25.694;2023-02-28T07:25:24;11.00;;;9.48;;
33844;SDS011;20145;43.118;25.694;2023-02-28T07:27:51;13.23;;;8.98;;
33844;SDS011;20145;43.118;25.694;2023-02-28T07:30:17;12.43;;;10.38;;
33844;SDS011;20145;43.118;25.694;2023-02-28T07:32:43;13.10;;;10.63;;
33844;SDS011;20145;43.118;25.694;2023-02-28T07:35:09;10.75;;;9.65;;
33844;SDS011;20145;43.118;25.694;2023-02-28T07:37:34;11.23;;;10.02;;
33844;SDS011;20145;43.118;25.694;2023-02-28T07:40:03;13.35;;;8.88;;
33844;SDS011;20145;43.118;25.694;2023-02-28T07:42:32;12.05;;;8.70;;
33844;SDS011;20145;43.118;25.694;2023-02-28T07:44:57;10.63;;;8.35;;
33844;SDS011;20145;43.118;25.694;2023-02-28T07:47:24;12.10;;;8.05;;
33844;SDS011;20145;43.118;25.694;2023-02-28T07:49:50;10.93;;;8.48;;
33844;SDS011;20145;43.118;25.694;2023-02-28T07:52:15;14.15;;;9.48;;
33844;SDS011;20145;43.118;25.694;2023-02-28T07:54:41;15.82;;;8.68;;
33844;SDS011;20145;43.118;25.694;2023-02-28T07:57:07;8.10;;;7.30;;
33844;SDS011;20145;43.118;25.694;2023-02-28T07:59:33;9.32;;;8.27;;
33844;SDS011;20145;43.118;25.694;2023-02-28T08:01:58;12.00;;;9.35;;
33844;SDS011;20145;43.118;25.694;2023-02-28T08:04:24;11.98;;;9.25;;
33844;SDS011;20145;43.118;25.694;2023-02-28T08:06:50;10.80;;;9.38;;
33844;SDS011;20145;43.118;25.694;2023-02-28T08:09:19;17.15;;;10.25;;
33844;SDS011;20145;43.118;25.694;2023-02-28T08:11:44;12.13;;;9.70;;
33844;SDS011;20145;43.118;25.694;2023-02-28T08:14:10;13.75;;;10.20;;
33844;SDS011;20145;43.118;25.694;2023-02-28T08:16:36;10.35;;;9.35;;
33844;SDS011;20145;43.118;25.694;2023-02-28T08:19:02;12.30;;;8.73;;
33844;SDS011;20145;43.118;25.694;2023-02-28T08:21:28;11.60;;;9.38;;
33844;SDS011;20145;43.118;25.694;2023-02-28T08:23:53;11.70;;;8.23;;
33844;SDS011;20145;43.118;25.694;2023-02-28T08:26:19;10.50;;;8.63;;
33844;SDS011;20145;43.118;25.694;2023-02-28T08:28:45;10.43;;;8.75;;
33844;SDS011;20145;43.118;25.694;2023-02-28T08:31:12;12.48;;;9.43;;
33844;SDS011;20145;43.118;25.694;2023-02-28T08:33:40;9.88;;;8.15;;
33844;SDS011;20145;43.118;25.694;2023-02-28T08:36:06;14.27;;;9.25;;
33844;SDS011;20145;43.118;25.694;2023-02-28T08:38:34;9.98;;;8.68;;
33844;SDS011;20145;43.118;25.694;2023-02-28T08:41:02;12.40;;;9.93;;
33844;SDS011;20145;43.118;25.694;2023-02-28T08:43:31;11.85;;;10.05;;
33844;SDS011;20145;43.118;25.694;2023-02-28T08:45:56;17.38;;;9.23;;
33844;SDS011;20145;43.118;25.694;2023-02-28T08:48:23;11.55;;;9.18;;
33844;SDS011;20145;43.118;25.694;2023-02-28T08:50:59;15.10;;;9.65;;
33844;SDS011;20145;43.118;25.694;2023-02-28T08:53:27;10.80;;;8.85;;
33844;SDS011;20145;43.118;25.694;2023-02-28T08:56:12;10.57;;;8.43;;
33844;SDS011;20145;43.118;25.694;2023-02-28T08:58:41;10.52;;;8.10;;
33844;SDS011;20145;43.118;25.694;2023-02-28T09:01:07;8.88;;;7.97;;
33844;SDS011;20145;43.118;25.694;2023-02-28T09:03:37;11.50;;;8.52;;
33844;SDS011;20145;43.118;25.694;2023-02-28T09:06:03;10.45;;;7.78;;
33844;SDS011;20145;43.118;25.694;2023-02-28T09:08:30;8.73;;;7.72;;
33844;SDS011;20145;43.118;25.694;2023-02-28T09:10:56;10.45;;;7.80;;
33844;SDS011;20145;43.118;25.694;2023-02-28T09:13:23;9.75;;;7.93;;
33844;SDS011;20145;43.118;25.694;2023-02-28T09:15:53;12.48;;;8.65;;
33844;SDS011;20145;43.118;25.694;2023-02-28T09:18:19;11.43;;;8.05;;
33844;SDS011;20145;43.118;25.694;2023-02-28T09:20:45;12.40;;;9.02;;
33844;SDS011;20145;43.118;25.694;2023-02-28T09:23:11;11.80;;;8.27;;
33844;SDS011;20145;43.118;25.694;2023-02-28T09:25:44;12.63;;;9.13;;
33844;SDS011;20145;43.118;25.694;2023-02-28T09:28:11;11.50;;;8.48;;
33844;SDS011;20145;43.118;25.694;2023-02-28T09:30:37;11.15;;;8.82;;
33844;SDS011;20145;43.118;25.694;2023-02-28T09:33:02;17.00;;;11.02;;
33844;SDS011;20145;43.118;25.694;2023-02-28T09:35:28;13.02;;;9.73;;
33844;SDS011;20145;43.118;25.694;2023-02-28T09:37:55;10.65;;;9.13;;
33844;SDS011;20145;43.118;25.694;2023-02-28T09:40:23;13.05;;;9.52;;
33844;SDS011;20145;43.118;25.694;2023-02-28T09:42:51;11.05;;;8.75;;
33844;SDS011;20145;43.118;25.694;2023-02-28T09:48:01;11.82;;;8.80;;
33844;SDS011;20145;43.118;25.694;2023-02-28T09:50:41;15.20;;;12.00;;
33844;SDS011;20145;43.118;25.694;2023-02-28T09:53:27;14.75;;;11.23;;
33844;SDS011;20145;43.118;25.694;2023-02-28T09:55:59;12.50;;;9.20;;
33844;SDS011;20145;43.118;25.694;2023-02-28T10:06:22;19.38;;;13.27;;
33844;SDS011;20145;43.118;25.694;2023-02-28T10:11:21;14.07;;;11.18;;
33844;SDS011;20145;43.118;25.694;2023-02-28T10:14:10;26.17;;;18.25;;
33844;SDS011;20145;43.118;25.694;2023-02-28T10:19:22;11.63;;;10.25;;
33844;SDS011;20145;43.118;25.694;2023-02-28T10:22:44;13.68;;;10.50;;
33844;SDS011;20145;43.118;25.694;2023-02-28T10:24:51;27.77;;;25.17;;
33844;SDS011;20145;43.118;25.694;2023-02-28T10:27:19;19.23;;;17.27;;
33844;SDS011;20145;43.118;25.694;2023-02-28T10:29:46;18.65;;;16.25;;
33844;SDS011;20145;43.118;25.694;2023-02-28T10:32:15;16.80;;;15.13;;
33844;SDS011;20145;43.118;25.694;2023-02-28T10:34:43;62.30;;;56.78;;
33844;SDS011;20145;43.118;25.694;2023-02-28T10:37:10;33.30;;;30.27;;
33844;SDS011;20145;43.118;25.694;2023-02-28T10:39:44;28.33;;;25.45;;
33844;SDS011;20145;43.118;25.694;2023-02-28T10:42:44;21.50;;;17.20;;
33844;SDS011;20145;43.118;25.694;2023-02-28T10:47:48;27.60;;;16.17;;
33844;SDS011;20145;43.118;25.694;2023-02-28T10:50:31;13.15;;;10.40;;
33844;SDS011;20145;43.118;25.694;2023-02-28T10:58:49;67.72;;;35.75;;
33844;SDS011;20145;43.118;25.694;2023-02-28T11:01:40;48.90;;;23.00;;
33844;SDS011;20145;43.118;25.694;2023-02-28T11:04:32;41.08;;;23.15;;
33844;SDS011;20145;43.118;25.694;2023-02-28T11:07:18;22.88;;;14.75;;
33844;SDS011;20145;43.118;25.694;2023-02-28T11:09:46;27.30;;;16.55;;
33844;SDS011;20145;43.118;25.694;2023-02-28T11:15:03;46.65;;;24.42;;
33844;SDS011;20145;43.118;25.694;2023-02-28T11:17:32;25.08;;;16.00;;
33844;SDS011;20145;43.118;25.694;2023-02-28T11:19:59;38.63;;;22.45;;
33844;SDS011;20145;43.118;25.694;2023-02-28T11:22:43;41.33;;;22.70;;
33844;SDS011;20145;43.118;25.694;2023-02-28T11:25:27;20.63;;;13.77;;
33844;SDS011;20145;43.118;25.694;2023-02-28T11:27:56;11.98;;;9.68;;
33844;SDS011;20145;43.118;25.694;2023-02-28T11:30:28;36.28;;;21.17;;
33844;SDS011;20145;43.118;25.694;2023-02-28T11:32:53;52.40;;;28.67;;
33844;SDS011;20145;43.118;25.694;2023-02-28T11:38:00;13.90;;;11.38;;
33844;SDS011;20145;43.118;25.694;2023-02-28T11:43:20;15.23;;;11.35;;
33844;SDS011;20145;43.118;25.694;2023-02-28T11:51:51;32.17;;;21.30;;
33844;SDS011;20145;43.118;25.694;2023-02-28T12:02:25;15.32;;;12.50;;
33844;SDS011;20145;43.118;25.694;2023-02-28T12:08:03;16.48;;;11.70;;
33844;SDS011;20145;43.118;25.694;2023-02-28T12:10:47;19.45;;;14.00;;
33844;SDS011;20145;43.118;25.694;2023-02-28T12:19:19;31.55;;;20.27;;
33844;SDS011;20145;43.118;25.694;2023-02-28T12:26:49;54.17;;;25.83;;
33844;SDS011;20145;43.118;25.694;2023-02-28T12:29:21;67.75;;;34.25;;
33844;SDS011;20145;43.118;25.694;2023-02-28T12:32:01;34.75;;;20.20;;
33844;SDS011;20145;43.118;25.694;2023-02-28T12:34:32;65.25;;;29.92;;
33844;SDS011;20145;43.118;25.694;2023-02-28T12:37:02;35.72;;;19.40;;
33844;SDS011;20145;43.118;25.694;2023-02-28T12:39:34;65.18;;;33.53;;
33844;SDS011;20145;43.118;25.694;2023-02-28T12:42:19;33.38;;;20.10;;
33844;SDS011;20145;43.118;25.694;2023-02-28T12:44:54;22.77;;;16.88;;
33844;SDS011;20145;43.118;25.694;2023-02-28T12:47:24;27.85;;;18.80;;
33844;SDS011;20145;43.118;25.694;2023-02-28T12:49:58;37.65;;;22.48;;
33844;SDS011;20145;43.118;25.694;2023-02-28T12:52:35;36.90;;;22.50;;
33844;SDS011;20145;43.118;25.694;2023-02-28T12:57:41;46.00;;;28.67;;
33844;SDS011;20145;43.118;25.694;2023-02-28T13:00:13;30.52;;;18.02;;
33844;SDS011;20145;43.118;25.694;2023-02-28T13:03:01;19.95;;;15.60;;
33844;SDS011;20145;43.118;25.694;2023-02-28T13:08:41;16.17;;;13.93;;
33844;SDS011;20145;43.118;25.694;2023-02-28T13:11:25;17.33;;;13.93;;
33844;SDS011;20145;43.118;25.694;2023-02-28T13:13:59;17.60;;;14.10;;
33844;SDS011;20145;43.118;25.694;2023-02-28T13:16:28;20.50;;;14.85;;
33844;SDS011;20145;43.118;25.694;2023-02-28T13:19:18;23.45;;;15.85;;
33844;SDS011;20145;43.118;25.694;2023-02-28T13:21:48;24.90;;;15.02;;
33844;SDS011;20145;43.118;25.694;2023-02-28T13:25:01;21.10;;;14.38;;
33844;SDS011;20145;43.118;25.694;2023-02-28T13:29:41;20.30;;;15.32;;
33844;SDS011;20145;43.118;25.694;2023-02-28T13:34:41;19.95;;;16.35;;
33844;SDS011;20145;43.118;25.694;2023-02-28T13:47:28;42.58;;;32.88;;
33844;SDS011;20145;43.118;25.694;2023-02-28T13:58:55;21.73;;;17.85;;
33844;SDS011;20145;43.118;25.694;2023-02-28T14:07:00;25.10;;;20.70;;
33844;SDS011;20145;43.118;25.694;2023-02-28T14:09:34;65.35;;;36.17;;
33844;SDS011;20145;43.118;25.694;2023-02-28T14:18:23;30.63;;;22.42;;
33844;SDS011;20145;43.118;25.694;2023-02-28T14:35:40;36.97;;;28.80;;
33844;SDS011;20145;43.118;25.694;2023-02-28T14:38:13;36.78;;;26.58;;
33844;SDS011;20145;43.118;25.694;2023-02-28T14:40:43;40.28;;;25.50;;
33844;SDS011;20145;43.118;25.694;2023-02-28T14:43:19;36.08;;;27.40;;
33844;SDS011;20145;43.118;25.694;2023-02-28T14:45:55;125.13;;;74.13;;
33844;SDS011;20145;43.118;25.694;2023-02-28T14:48:24;41.35;;;31.35;;
33844;SDS011;20145;43.118;25.694;2023-02-28T14:50:56;29.45;;;23.80;;
33844;SDS011;20145;43.118;25.694;2023-02-28T14:53:25;38.42;;;29.83;;
33844;SDS011;20145;43.118;25.694;2023-02-28T14:55:53;38.03;;;27.85;;
33844;SDS011;20145;43.118;25.694;2023-02-28T15:00:48;56.08;;;43.72;;
33844;SDS011;20145;43.118;25.694;2023-02-28T15:03:19;48.40;;;37.78;;
33844;SDS011;20145;43.118;25.694;2023-02-28T15:05:54;43.13;;;33.35;;
33844;SDS011;20145;43.118;25.694;2023-02-28T15:08:24;27.38;;;20.80;;
33844;SDS011;20145;43.118;25.694;2023-02-28T15:13:46;38.33;;;26.48;;
33844;SDS011;20145;43.118;25.694;2023-02-28T15:19:00;31.80;;;25.08;;
33844;SDS011;20145;43.118;25.694;2023-02-28T15:21:30;33.65;;;23.27;;
33844;SDS011;20145;43.118;25.694;2023-02-28T15:26:30;31.42;;;22.83;;
33844;SDS011;20145;43.118;25.694;2023-02-28T15:29:00;34.00;;;26.13;;
33844;SDS011;20145;43.118;25.694;2023-02-28T15:31:33;42.38;;;29.13;;
33844;SDS011;20145;43.118;25.694;2023-02-28T15:34:19;36.45;;;27.05;;
33844;SDS011;20145;43.118;25.694;2023-02-28T15:36:47;36.30;;;27.30;;
33844;SDS011;20145;43.118;25.694;2023-02-28T15:39:20;39.15;;;29.55;;
33844;SDS011;20145;43.118;25.694;2023-02-28T15:41:48;51.80;;;40.13;;
33844;SDS011;20145;43.118;25.694;2023-02-28T15:44:25;37.72;;;27.20;;
33844;SDS011;20145;43.118;25.694;2023-02-28T15:47:04;40.30;;;29.55;;
33844;SDS011;20145;43.118;25.694;2023-02-28T15:49:47;37.10;;;28.17;;
33844;SDS011;20145;43.118;25.694;2023-02-28T15:52:16;39.80;;;28.13;;
33844;SDS011;20145;43.118;25.694;2023-02-28T15:54:45;45.25;;;26.85;;
33844;SDS011;20145;43.118;25.694;2023-02-28T15:57:15;47.97;;;34.35;;
33844;SDS011;20145;43.118;25.694;2023-02-28T15:59:54;84.85;;;44.75;;
33844;SDS011;20145;43.118;25.694;2023-02-28T16:02:29;50.88;;;34.70;;
33844;SDS011;20145;43.118;25.694;2023-02-28T16:05:12;43.42;;;31.50;;
33844;SDS011;20145;43.118;25.694;2023-02-28T16:07:43;39.13;;;29.67;;
33844;SDS011;20145;43.118;25.694;2023-02-28T16:10:10;41.63;;;30.15;;
33844;SDS011;20145;43.118;25.694;2023-02-28T16:12:37;40.17;;;28.02;;
33844;SDS011;20145;43.118;25.694;2023-02-28T16:17:54;40.63;;;28.52;;
33844;SDS011;20145;43.118;25.694;2023-02-28T16:20:25;70.72;;;43.20;;
33844;SDS011;20145;43.118;25.694;2023-02-28T16:22:55;59.22;;;39.72;;
33844;SDS011;20145;43.118;25.694;2023-02-28T16:25:25;52.65;;;40.17;;
33844;SDS011;20145;43.118;25.694;2023-02-28T16:27:58;60.20;;;43.65;;
33844;SDS011;20145;43.118;25.694;2023-02-28T16:30:26;73.38;;;54.30;;
33844;SDS011;20145;43.118;25.694;2023-02-28T16:32:55;57.95;;;43.00;;
33844;SDS011;20145;43.118;25.694;2023-02-28T16:35:21;53.00;;;37.25;;
33844;SDS011;20145;43.118;25.694;2023-02-28T16:37:47;40.20;;;29.60;;
33844;SDS011;20145;43.118;25.694;2023-02-28T16:40:20;42.97;;;29.52;;
33844;SDS011;20145;43.118;25.694;2023-02-28T16:42:51;37.90;;;29.02;;
33844;SDS011;20145;43.118;25.694;2023-02-28T16:45:22;47.58;;;33.13;;
33844;SDS011;20145;43.118;25.694;2023-02-28T16:47:50;43.25;;;28.77;;
33844;SDS011;20145;43.118;25.694;2023-02-28T16:50:17;46.67;;;33.55;;
33844;SDS011;20145;43.118;25.694;2023-02-28T16:52:44;54.95;;;39.65;;
33844;SDS011;20145;43.118;25.694;2023-02-28T16:55:10;51.65;;;35.17;;
33844;SDS011;20145;43.118;25.694;2023-02-28T16:57:37;51.53;;;36.53;;
33844;SDS011;20145;43.118;25.694;2023-02-28T17:00:05;47.00;;;32.67;;
33844;SDS011;20145;43.118;25.694;2023-02-28T17:02:33;53.25;;;39.72;;
33844;SDS011;20145;43.118;25.694;2023-02-28T17:04:59;38.53;;;28.02;;
33844;SDS011;20145;43.118;25.694;2023-02-28T17:07:25;34.67;;;25.83;;
33844;SDS011;20145;43.118;25.694;2023-02-28T17:09:50;58.08;;;44.00;;
33844;SDS011;20145;43.118;25.694;2023-02-28T17:12:16;43.78;;;32.08;;